Погода METAR - Красноярск

Код аэропорта ICAO:
Кемерово, Абакан, Красноярск, Новосибирск
Код METAR: UNKL 232230Z 35001MPS 9999 -SN SCT031 M11/M13 Q1028 R11/490240 NOSIG RMK QFE745
TAF UNKL 232000Z 2321/2421 12003MPS 6000 -SN SCT016 
     TEMPO 2321/2404 1000 -SN BR 
     FM240400 09003MPS 9999 SCT017
       

Погода - Сейчас

Время: 2020-02-24 05:30, местное
Направление ветра: Север (350°)
Скорость ветра: 1 м/с
Видимость:
Температура: -11°C
Точка росы: -13°C
Атмосферное давление: 1028 гПа

Архив погоды

Время, местное Направление Скорость, м/с Температура, °C Точка росы, °C Давление, гПа
2020-02-24 05:30 С (350°) 1 -11 -13 1028
2020-02-22 06:00 ЗЮЗ (240°) 2 -6 -7 1014
2020-02-22 04:00 Ю (190°) 1 -5 -6 1014
2020-02-21 23:00 З (270°) 4 -3 -6 1016
2020-02-18 08:00 Штиль 0 -11 -13 1028
2020-02-17 05:00 Штиль 0 -18 -21 1035
2020-02-17 00:00 Штиль 0 -16 -17 1037
2020-02-16 08:30 Штиль 0 -17 -20 1036
2020-02-15 21:30 ЮЮВ (160°) 1 -12 -14 1035
2020-02-15 14:30 ВЮВ (110°) 1 -6 -11 1035
2020-02-14 14:00 ЮЮВ (150°) 1 -5 -12 1034
2020-02-11 10:00 ЗСЗ (290°) 3 -19 -22 1019
2020-02-10 15:00 СЗ (310°) 4 -7 -9 1002
2020-02-09 04:30 ЗЮЗ (250°) 7 5 -3 995
2020-02-08 14:00 ВЮВ (110°) 2 -2 -5 1013
2020-02-07 12:30 ЗЮЗ (240°) 5 -2 -10 1019
2020-02-07 08:30 ЗЮЗ (240°) 3 -1 -6 1017
2020-02-06 21:30 Штиль 0 0 0
2020-02-05 19:30 Штиль 0 -10 -10 1023
2020-02-01 14:30 Штиль 0 -19 -23 1035
2020-01-30 16:00 ЗЮЗ (250°) 6 -17 -22 1034
2020-01-28 13:30 Ю (180°) 3 0 -10 1014
2020-01-28 02:00 Штиль 0 -15 -17 1015
2020-01-25 18:00 ЮЗ (210°) 5, порывы до 10 2 -10 1003
2020-01-24 21:00 ЮЮЗ (200°) 4 1 -4 1007
2020-01-24 19:00 ЮЗ (220°) 4 0 -5 1008
2020-01-24 10:00 ЮЮЗ (200°) 4 -2 -6 1011
2020-01-24 06:30 ЮЮЗ (200°) 6 -3 -7 1012
2020-01-23 17:00 ЮЮЗ (200°) 3 -7 -13 1018
2020-01-23 13:30 Переменный 1 -11 -15 1018
2020-01-23 01:30 Штиль 0 -24 -27 1020
2020-01-18 08:00 ЮЗ (230°) 5 -5 -9 1002
2020-01-15 23:30 Ю (180°) 2 -6 -11 1020
2020-01-11 06:30 В (100°) 1 -28 -31 1030
2020-01-08 23:00 Штиль 0 -12 -14 1028
2020-01-08 14:30 ЗЮЗ (260°) 3 -7 -11 1027
2020-01-08 10:00 ЗЮЗ (250°) 4 -8 -11 1028
2020-01-06 14:00 ЗЮЗ (240°) 4 0 -5 1021
2020-01-03 05:00 ЮЗ (230°) 4 1 -3 1016
2019-12-31 00:30 Штиль 0 -15 -17 1017
2019-12-29 18:30 Штиль 0 -27 -30 1024
2019-12-25 12:30 ЮЮЗ (200°) 3, порывы до 8 -9 -13 1013
2019-12-25 07:00 ЗЮЗ (250°) 4 -12 -15 1018
2019-12-23 04:30 ЮВ (120°) 2 -15 -17 1021
2019-12-22 15:30 В (100°) 2 -17 -20 1018
2019-12-21 16:00 В (90°) 2 -11 -13 1019
2019-12-20 01:30 Штиль 0 -9 -10 1018
2019-12-19 05:00 ЗЮЗ (250°) 3 -7 -9 1023